Detall de PIREP

Printer-friendly versionPDF version

[2011/06/10 22:13:00]
Flight IATA:CT2111
Pilot Number:042
Company ICAO:CAT
Aircraft Type:B75F/E
PAX:3
Departing Airport: LEST
Destination Airport: LEVC
Alternate Airport:LEPA
Online: VATSIM
Route:FORNO UN733 ZMR UL155 KALMA UH100 CJN UN733 CLS
Flight Level:F340
No Slew and time accel
No pause
Crash detect
Detect pilot in Cockpit between each 30 and 45 minutes
22:13 Zero fuel Weight: 181580 Lbs, Fuel Weight: 75432 Lbs
22:13 VATSIM:LEST 102200Z VRB02KT 9999 FEW032 10/08 Q1023 NOSIG
22:13 VATSIM:LEVC 102200Z VRB02KT 9999 FEW025 21/17 Q1018 NOSIG
22:13 VOICE CATALONIAN
22:25 Parking Brakes off
22:41 Take-off
22:41 Take off Weight: 255530 Lbs
22:41 Wind: 006 @ 002 Knots Heading: 165
22:41 POS N42 53 32 W008 24 49
22:41 Flaps:3 at 179 Knots
22:41 Gear Up: 178 Knots
22:41 Flaps:2 at 167 Knots
22:41 Flaps:1 at 155 Knots
22:43 Flaps:0 at 233 Knots
22:56 Wind:317@050 Knots Heading: 122 Ground Speed: 467 Knots Altitude 28979 ft
23:07 TOC
23:07 Fuel Weight: 67226 Lb
23:11 Wind:327@052 Knots Heading: 136 Ground Speed: 507 Knots Altitude 34176 ft
23:24 TOD
23:24 Fuel Weight: 64780 Lb
23:26 Wind:332@050 Knots Heading: 115 Ground Speed: 445 Knots Altitude 31889 ft
23:41 Wind:260@016 Knots Heading: 128 Ground Speed: 285 Knots Altitude 12198 ft
23:43 Flaps:1 at 228 Knots
23:48 Flaps:2 at 188 Knots
23:49 Flaps:3 at 173 Knots
23:53 Gear Down: 171 Knots
23:53 Flaps:4 at 170 Knots
23:53 Flaps:5 at 170 Knots
23:55 Flaps:6 at 170 Knots
23:58 TouchDown:Rate -652 ft/min Speed: 145 Knots
23:58 VATSIM:LEVC 102330Z 33003KT 9999 FEW025 20/17 Q1018 NOSIG
23:58 Land
23:58 Wind:333@003 Knots
23:58 Heading: 299
23:58 Flight Duration: 01:17
23:58 Landing Weight: 243517 Lbs
23:58 POS N39 29 32 W000 29 21
23:59 Parking brakes on
23:59 Block to Block Duration: 01:34
23:59 Final Fuel: 61810 Lbls
23:59 Spent Fuel: 13622 Lbls
23:59 Flight Length: 473 NM
23:59 TOD Land Length: 152 NM

Exportar CSV

Powered by Drupal - Modified by Danger4k